Time;durP1;ratioP1;P1;durP2;ratioP2;P2;SDS_P1;SDS_P2;PMS_P1;PMS_P2;Temp;Humidity;BMP_temperature;BMP_pressure;BME280_temperature;BME280_humidity;BME280_pressure;Samples;Min_cycle;Max_cycle;Signal;HPM_P1;HPM_P2
2022/12/16 00:01:57;;;;;;;44.03;26.65;;;;;;;-0.43;70.22;100733.09;3609786;39;20397;-62
2022/12/16 00:04:23;;;;;;;40.35;25.75;;;;;;;-0.35;69.93;100736.47;3604888;39;20049;-62
2022/12/16 00:06:48;;;;;;;42.33;25.48;;;;;;;-0.34;69.84;100732.94;3608722;39;20447;-63
2022/12/16 00:09:14;;;;;;;41.60;25.40;;;;;;;-0.25;68.82;100738.03;3611636;39;20047;-65
2022/12/16 00:11:39;;;;;;;39.60;25.83;;;;;;;-0.21;68.47;100733.56;3605387;39;20078;-63
2022/12/16 00:14:05;;;;;;;41.67;25.52;;;;;;;-0.19;68.07;100725.59;3607375;39;20050;-63
2022/12/16 00:16:31;;;;;;;39.70;24.80;;;;;;;-0.73;69.45;100640.38;3604953;39;20377;-63
2022/12/16 00:18:56;;;;;;;43.45;28.13;;;;;;;-0.78;69.33;100614.97;3610118;39;20065;-63
2022/12/16 00:21:27;;;;;;;38.65;24.00;;;;;;;-0.13;69.20;100712.28;3609716;39;20047;-63
2022/12/16 00:23:53;;;;;;;35.40;23.90;;;;;;;-0.04;68.93;100723.53;3607867;39;20096;-65
2022/12/16 00:26:18;;;;;;;39.67;24.65;;;;;;;-0.01;68.20;100725.25;3609576;39;20501;-64
2022/12/16 00:28:44;;;;;;;37.65;23.88;;;;;;;0.05;69.00;100719.84;3606359;39;20058;-62
2022/12/16 00:31:10;;;;;;;39.65;25.08;;;;;;;0.08;68.95;100717.13;3609693;39;20080;-64
2022/12/16 00:33:36;;;;;;;41.15;23.05;;;;;;;0.09;68.32;100710.06;3608978;39;20053;-63
2022/12/16 00:36:02;;;;;;;39.05;23.63;;;;;;;0.18;67.96;100731.03;3610688;39;20055;-63
2022/12/16 00:38:28;;;;;;;39.05;24.13;;;;;;;0.20;67.26;100724.81;3610047;39;20098;-63
2022/12/16 00:40:54;;;;;;;36.72;24.20;;;;;;;0.25;68.41;100716.78;3610699;39;20047;-66
2022/12/16 00:43:19;;;;;;;44.08;23.73;;;;;;;0.27;67.95;100722.03;3608651;39;20059;-63
2022/12/16 00:45:46;;;;;;;41.58;26.00;;;;;;;0.32;68.38;100720.16;3608455;39;20557;-64
2022/12/16 00:48:12;;;;;;;35.05;24.10;;;;;;;0.35;68.30;100722.72;3608381;39;20082;-63
2022/12/16 00:50:37;;;;;;;38.35;24.65;;;;;;;0.37;68.58;100721.81;3607211;39;20090;-63
2022/12/16 00:53:05;;;;;;;41.60;24.95;;;;;;;0.40;68.36;100726.16;3605589;39;20058;-63
2022/12/16 00:55:31;;;;;;;38.55;24.88;;;;;;;0.42;68.39;100724.38;3606733;39;20051;-64
2022/12/16 00:57:57;;;;;;;41.10;23.95;;;;;;;0.44;67.47;100720.78;3607265;39;20411;-63
2022/12/16 01:00:23;;;;;;;39.17;24.65;;;;;;;0.46;67.80;100726.91;3608518;39;20466;-63
2022/12/16 01:02:50;;;;;;;38.10;23.88;;;;;;;0.27;67.68;100690.31;3609233;39;20066;-63
2022/12/16 01:05:19;;;;;;;41.47;26.77;;;;;;;0.46;67.54;100726.03;3607190;39;20062;-63
2022/12/16 01:07:46;;;;;;;41.58;24.30;;;;;;;0.52;68.53;100736.47;3606860;39;20400;-64
2022/12/16 01:10:12;;;;;;;38.42;23.67;;;;;;;0.55;68.82;100739.06;3607515;39;20130;-64
2022/12/16 01:12:38;;;;;;;40.28;24.33;;;;;;;0.57;68.37;100739.91;3606201;39;20063;-63
2022/12/16 01:15:07;;;;;;;36.83;24.88;;;;;;;0.60;67.46;100747.75;3609601;39;20046;-63
2022/12/16 01:17:34;;;;;;;39.20;24.23;;;;;;;0.62;67.36;100747.72;3608452;39;20047;-63
2022/12/16 01:20:00;;;;;;;38.15;24.02;;;;;;;0.63;68.55;100749.44;3607886;39;20048;-63
2022/12/16 01:22:31;;;;;;;36.67;24.98;;;;;;;0.67;67.60;100757.31;3608940;39;20401;-64
2022/12/16 01:24:57;;;;;;;36.70;23.30;;;;;;;0.72;68.72;100753.66;3610294;39;20523;-64
2022/12/16 01:27:23;;;;;;;35.00;22.25;;;;;;;0.74;67.03;100758.03;3612801;39;20074;-63
2022/12/16 01:29:49;;;;;;;37.45;22.35;;;;;;;0.76;67.50;100765.91;3611034;39;20094;-63
2022/12/16 01:32:15;;;;;;;40.78;24.50;;;;;;;0.77;67.97;100765.91;3602396;39;20123;-63
2022/12/16 01:34:41;;;;;;;36.58;23.00;;;;;;;0.57;67.76;100729.31;3605808;39;20071;-64
2022/12/16 01:37:13;;;;;;;36.30;24.55;;;;;;;0.76;68.46;100776.50;3610646;39;20134;-64
2022/12/16 01:39:38;;;;;;;35.83;23.70;;;;;;;0.75;67.95;100765.06;3612673;39;20066;-65
2022/12/16 01:42:15;;;;;;;38.20;24.25;;;;;;;0.77;69.18;100772.97;3606938;39;20342;-64
2022/12/16 01:44:47;;;;;;;34.95;24.20;;;;;;;0.77;67.64;100770.31;3608618;39;20065;-64
2022/12/16 01:47:29;;;;;;;36.15;23.25;;;;;;;0.78;68.70;100785.28;3614889;39;20316;-64
2022/12/16 01:49:59;;;;;;;37.83;23.17;;;;;;;0.80;68.72;100788.78;3608728;39;20051;-63
2022/12/16 01:52:45;;;;;;;39.17;24.30;;;;;;;0.80;68.91;100791.41;3609346;39;20058;-64
2022/12/16 01:55:33;;;;;;;38.42;23.52;;;;;;;0.82;68.59;100792.25;3607074;39;20355;-64
2022/12/16 01:58:25;;;;;;;35.55;23.13;;;;;;;0.82;68.85;100787.81;3606084;39;20083;-64
2022/12/16 02:00:51;;;;;;;34.67;23.30;;;;;;;0.85;68.92;100786.88;3604451;39;20348;-63
2022/12/16 02:03:17;;;;;;;37.85;22.40;;;;;;;0.87;68.78;100791.25;3607558;39;20103;-64
2022/12/16 02:05:46;;;;;;;34.17;22.77;;;;;;;0.77;67.67;100772.97;3609573;39;20550;-64
2022/12/16 02:08:15;;;;;;;36.95;23.67;;;;;;;0.88;68.68;100798.25;3609917;39;20054;-64
2022/12/16 02:10:41;;;;;;;32.95;22.77;;;;;;;0.90;67.40;100806.19;3609117;39;20069;-64
2022/12/16 02:13:44;;;;;;;32.42;22.15;;;;;;;0.90;68.46;100799.09;3608600;39;20098;-64
2022/12/16 02:16:31;;;;;;;32.03;22.27;;;;;;;0.87;68.15;100793.03;3606597;39;20067;-63
2022/12/16 02:19:15;;;;;;;35.35;22.75;;;;;;;0.89;68.56;100809.75;3610090;39;20047;-64
2022/12/16 02:22:01;;;;;;;33.92;22.45;;;;;;;0.90;68.50;100814.97;3607441;39;20059;-64
2022/12/16 02:24:32;;;;;;;52.08;30.77;;;;;;;0.92;68.48;100807.03;3609351;39;20046;-65
2022/12/16 02:27:29;;;;;;;56.88;34.35;;;;;;;0.94;68.05;100810.50;3608609;39;20043;-64
2022/12/16 02:30:09;;;;;;;92.45;45.70;;;;;;;0.93;68.02;100812.28;3607438;39;20494;-64
2022/12/16 02:33:08;;;;;;;113.38;53.83;;;;;;;0.93;68.44;100819.34;3609149;39;20062;-64
2022/12/16 02:35:49;;;;;;;70.50;38.17;;;;;;;0.93;67.60;100822.00;3610871;39;20301;-64
2022/12/16 02:38:49;;;;;;;49.08;29.17;;;;;;;0.94;67.67;100821.06;3612479;39;20586;-63
2022/12/16 02:41:52;;;;;;;36.17;23.83;;;;;;;0.93;68.54;100824.63;3607858;39;20063;-64
2022/12/16 02:44:24;;;;;;;36.75;24.50;;;;;;;0.93;68.43;100822.84;3607759;39;20082;-64
2022/12/16 02:46:54;;;;;;;39.15;24.45;;;;;;;0.93;68.51;100822.00;3611343;39;20062;-64
2022/12/16 02:49:20;;;;;;;43.60;28.30;;;;;;;0.95;67.65;100821.94;3608988;39;20252;-64
2022/12/16 02:51:48;;;;;;;46.50;31.80;;;;;;;0.91;68.23;100813.22;3607853;39;20136;-64
2022/12/16 02:54:17;;;;;;;44.25;28.90;;;;;;;0.92;68.06;100820.25;3609699;39;20270;-64
2022/12/16 02:57:23;;;;;;;44.38;29.40;;;;;;;0.93;68.12;100824.63;3599005;39;20087;-64
2022/12/16 03:00:11;;;;;;;42.78;27.65;;;;;;;0.92;68.21;100822.91;3607021;39;20062;-64
2022/12/16 03:03:01;;;;;;;37.42;25.40;;;;;;;0.90;68.78;100825.56;3610482;39;20047;-64
2022/12/16 03:05:39;;;;;;;44.10;27.52;;;;;;;0.84;68.44;100809.81;3611520;39;20077;-64
2022/12/16 03:08:13;;;;;;;43.08;28.13;;;;;;;0.88;68.83;100829.16;3608153;39;20065;-64
2022/12/16 03:10:50;;;;;;;40.10;26.00;;;;;;;0.86;69.93;100825.69;3606056;39;20059;-64
2022/12/16 03:13:20;;;;;;;41.33;29.48;;;;;;;0.83;69.77;100825.75;3609769;39;20984;-64
2022/12/16 03:15:55;;;;;;;42.17;27.30;;;;;;;0.79;70.24;100827.56;3609988;39;20491;-64
2022/12/16 03:18:23;;;;;;;44.28;29.30;;;;;;;0.77;71.62;100832.03;3608387;39;20068;-64
2022/12/16 03:21:01;;;;;;;44.90;29.92;;;;;;;0.72;71.48;100838.31;3609414;39;20058;-64
2022/12/16 03:23:48;;;;;;;46.78;31.33;;;;;;;0.70;72.32;100835.72;3606328;39;20066;-64
2022/12/16 03:26:50;;;;;;;44.95;28.55;;;;;;;0.69;72.24;100845.41;3604750;39;20131;-64
2022/12/16 03:29:34;;;;;;;44.50;28.77;;;;;;;0.65;73.68;100843.75;3592756;39;20082;-64
2022/12/16 03:32:14;;;;;;;49.92;30.20;;;;;;;0.62;73.07;100849.09;3607380;39;20058;-64
2022/12/16 03:34:52;;;;;;;43.72;28.33;;;;;;;0.60;73.22;100845.63;3608604;39;20170;-64
2022/12/16 03:37:23;;;;;;;47.00;30.00;;;;;;;0.57;72.96;100837.75;3605903;39;20058;-64
2022/12/16 03:39:59;;;;;;;47.78;29.95;;;;;;;0.54;73.21;100840.47;3605076;39;20055;-63
2022/12/16 03:42:25;;;;;;;48.35;30.10;;;;;;;0.54;73.20;100845.75;3605720;39;20065;-64
2022/12/16 03:44:51;;;;;;;45.03;29.83;;;;;;;0.55;73.87;100847.47;3610253;39;20053;-63
2022/12/16 03:47:17;;;;;;;49.58;31.55;;;;;;;0.55;73.85;100857.19;3608304;39;20072;-64
2022/12/16 03:49:44;;;;;;;55.63;34.35;;;;;;;0.53;74.63;100849.28;3611316;39;20062;-64
2022/12/16 03:52:10;;;;;;;51.92;32.20;;;;;;;0.23;74.24;100817.28;3608992;39;20058;-64
2022/12/16 03:54:36;;;;;;;53.63;34.85;;;;;;;0.51;75.01;100861.69;3605238;39;20103;-64
2022/12/16 03:57:02;;;;;;;56.75;34.85;;;;;;;0.52;74.89;100858.13;3609345;39;21506;-64
2022/12/16 03:59:28;;;;;;;53.58;33.30;;;;;;;0.35;74.00;100828.47;3609024;39;21303;-64
2022/12/16 04:01:53;;;;;;;47.03;32.35;;;;;;;0.55;75.00;100866.00;3607751;39;20055;-64
2022/12/16 04:04:19;;;;;;;46.45;30.92;;;;;;;0.56;74.65;100865.09;3607867;39;20058;-64
2022/12/16 04:07:18;;;;;;;46.00;30.17;;;;;;;0.59;74.45;100869.44;3602893;39;20412;-64
2022/12/16 04:09:30;;;;;;;51.03;30.92;;;;;;;0.61;75.47;100880.88;3605841;39;20051;-64
2022/12/16 04:25:46;;;;;;;54.60;31.65;;;;;;;0.82;76.50;100891.00;3604944;39;20055;-63
2022/12/16 04:28:12;;;;;;;57.65;31.85;;;;;;;0.76;76.66;100879.69;3605322;39;20055;-64
2022/12/16 04:30:38;;;;;;;58.42;31.85;;;;;;;0.82;76.70;100898.06;3608293;39;20059;-65
